Time;durP1;ratioP1;P1;durP2;ratioP2;P2;SDS_P1;SDS_P2;PMS_P1;PMS_P2;Temp;Humidity;BMP_temperature;BMP_pressure;BME280_temperature;BME280_humidity;BME280_pressure;Samples;Min_cycle;Max_cycle;Signal;HPM_P1;HPM_P2
2023/03/02 00:01:00;;;;;;;10.20;6.13;;;;;;;;;;5033717;28;20207;-72
2023/03/02 00:03:27;;;;;;;7.93;5.90;;;;;;;;;;5034325;28;20219;-71
2023/03/02 00:05:56;;;;;;;14.85;7.30;;;;;;;;;;5033452;28;20213;-71
2023/03/02 00:08:23;;;;;;;9.90;6.82;;;;;;;;;;5048142;28;20195;-72
2023/03/02 00:10:50;;;;;;;8.35;5.03;;;;;;;;;;5054191;28;20210;-73
2023/03/02 00:13:17;;;;;;;10.52;6.45;;;;;;;;;;5060498;22;20219;-72
2023/03/02 00:15:45;;;;;;;10.07;6.65;;;;;;;;;;5031186;28;20231;-72
2023/03/02 00:18:12;;;;;;;9.13;5.75;;;;;;;;;;5032695;28;20199;-72
2023/03/02 00:20:40;;;;;;;11.73;6.03;;;;;;;;;;5033024;28;20203;-71
2023/03/02 00:23:07;;;;;;;8.70;5.75;;;;;;;;;;5032594;28;20239;-71
2023/03/02 00:25:34;;;;;;;12.43;6.40;;;;;;;;;;5024111;28;20223;-71
2023/03/02 00:28:01;;;;;;;11.50;6.13;;;;;;;;;;5013065;28;20592;-72
2023/03/02 00:30:28;;;;;;;13.65;6.53;;;;;;;;;;5012081;28;20226;-72
2023/03/02 00:32:57;;;;;;;9.40;6.40;;;;;;;;;;5029632;28;20602;-72
2023/03/02 00:35:24;;;;;;;11.18;6.90;;;;;;;;;;5032947;28;20213;-72
2023/03/02 00:37:51;;;;;;;12.88;6.97;;;;;;;;;;5032681;28;20196;-72
2023/03/02 00:40:19;;;;;;;7.65;6.00;;;;;;;;;;5032547;28;20576;-72
2023/03/02 00:42:46;;;;;;;9.68;6.72;;;;;;;;;;5021802;28;20231;-72
2023/03/02 00:45:13;;;;;;;8.45;6.55;;;;;;;;;;5012968;28;20200;-71
2023/03/02 00:47:40;;;;;;;10.30;6.22;;;;;;;;;;5012698;28;20577;-71
2023/03/02 00:50:09;;;;;;;16.25;6.22;;;;;;;;;;5012549;28;20196;-72
2023/03/02 00:52:36;;;;;;;9.85;6.18;;;;;;;;;;5012622;28;20220;-72
2023/03/02 00:55:03;;;;;;;9.55;6.50;;;;;;;;;;5013037;28;20204;-72
2023/03/02 00:57:30;;;;;;;9.38;5.93;;;;;;;;;;5026816;28;20249;-71
2023/03/02 00:59:58;;;;;;;10.15;6.55;;;;;;;;;;5018494;28;20199;-71
2023/03/02 01:02:25;;;;;;;10.00;5.78;;;;;;;;;;5012276;28;20214;-71
2023/03/02 01:04:52;;;;;;;8.05;4.72;;;;;;;;;;5011536;28;20208;-72
2023/03/02 01:07:23;;;;;;;12.85;6.45;;;;;;;;;;5012717;28;20200;-72
2023/03/02 01:09:50;;;;;;;10.05;5.93;;;;;;;;;;5011463;28;20650;-72
2023/03/02 01:12:18;;;;;;;9.18;5.57;;;;;;;;;;5011951;28;20649;-71
2023/03/02 01:14:46;;;;;;;11.20;6.72;;;;;;;;;;4984564;28;1043642;-72
2023/03/02 01:17:13;;;;;;;8.90;5.80;;;;;;;;;;5019175;28;20224;-72
2023/03/02 01:19:40;;;;;;;10.77;5.85;;;;;;;;;;5013413;28;20584;-71
2023/03/02 01:22:08;;;;;;;7.95;5.53;;;;;;;;;;5012025;28;20208;-72
2023/03/02 01:24:36;;;;;;;10.10;7.20;;;;;;;;;;5012857;28;20311;-74
2023/03/02 01:27:03;;;;;;;11.10;6.97;;;;;;;;;;5027920;28;20191;-72
2023/03/02 01:29:30;;;;;;;8.90;5.10;;;;;;;;;;5012024;28;20200;-72
2023/03/02 01:31:57;;;;;;;13.93;7.10;;;;;;;;;;5029952;28;20221;-72
2023/03/02 01:34:24;;;;;;;12.32;7.45;;;;;;;;;;5030629;28;20223;-72
2023/03/02 01:36:52;;;;;;;12.02;7.15;;;;;;;;;;5032543;28;20219;-72
2023/03/02 01:39:21;;;;;;;11.65;7.38;;;;;;;;;;5027522;28;20573;-72
2023/03/02 01:41:50;;;;;;;9.35;5.85;;;;;;;;;;5012355;28;20242;-72
2023/03/02 01:44:37;;;;;;;13.40;6.82;;;;;;;;;;5013175;28;20219;-72
2023/03/02 01:47:04;;;;;;;11.55;6.15;;;;;;;;;;5012140;28;20196;-72
2023/03/02 01:49:32;;;;;;;13.52;6.45;;;;;;;;;;5012805;28;20203;-72
2023/03/02 01:52:00;;;;;;;10.57;6.40;;;;;;;;;;5011541;28;20274;-72
2023/03/02 01:54:27;;;;;;;12.27;6.15;;;;;;;;;;5011505;28;20595;-71
2023/03/02 01:56:57;;;;;;;12.75;7.45;;;;;;;;;;5012779;28;20227;-72
2023/03/02 01:59:25;;;;;;;11.60;6.35;;;;;;;;;;5011946;28;20196;-72
2023/03/02 02:01:54;;;;;;;9.93;6.30;;;;;;;;;;5011810;28;20215;-71
2023/03/02 02:04:22;;;;;;;12.07;6.78;;;;;;;;;;5012326;28;20216;-72
2023/03/02 02:06:51;;;;;;;10.38;6.63;;;;;;;;;;5012500;28;20192;-72
2023/03/02 02:09:20;;;;;;;13.70;7.30;;;;;;;;;;5022204;28;20206;-72
2023/03/02 02:11:47;;;;;;;10.95;5.82;;;;;;;;;;5031652;28;20653;-71
2023/03/02 02:14:16;;;;;;;11.43;6.75;;;;;;;;;;5031820;28;20607;-71
2023/03/02 02:16:43;;;;;;;13.85;6.35;;;;;;;;;;5031736;28;20230;-71
2023/03/02 02:19:13;;;;;;;11.57;6.93;;;;;;;;;;5030554;28;20560;-72
2023/03/02 02:21:40;;;;;;;13.35;6.45;;;;;;;;;;5013789;28;20207;-72
2023/03/02 02:24:10;;;;;;;9.27;6.40;;;;;;;;;;5012185;28;20224;-72
2023/03/02 02:26:40;;;;;;;9.90;6.05;;;;;;;;;;5012072;28;20495;-72
2023/03/02 02:29:13;;;;;;;10.80;6.50;;;;;;;;;;5012288;28;20203;-71
2023/03/02 02:31:41;;;;;;;11.98;7.13;;;;;;;;;;5011805;28;20206;-71
2023/03/02 02:34:12;;;;;;;10.25;6.13;;;;;;;;;;5025678;28;20704;-71
2023/03/02 02:36:42;;;;;;;9.48;6.57;;;;;;;;;;5032178;28;20234;-72
2023/03/02 02:39:12;;;;;;;9.68;6.43;;;;;;;;;;5021778;28;20212;-71
2023/03/02 02:41:41;;;;;;;11.55;6.30;;;;;;;;;;5011843;28;20200;-72
2023/03/02 02:44:10;;;;;;;10.85;6.82;;;;;;;;;;5011804;28;20226;-72
2023/03/02 02:46:37;;;;;;;11.05;6.28;;;;;;;;;;5011639;28;20203;-71
2023/03/02 02:49:07;;;;;;;14.82;7.03;;;;;;;;;;5011802;28;20232;-72
2023/03/02 02:51:34;;;;;;;12.48;6.07;;;;;;;;;;5010727;28;20215;-72
2023/03/02 02:54:02;;;;;;;10.23;5.70;;;;;;;;;;5014773;28;20227;-71
2023/03/02 02:56:30;;;;;;;13.90;6.60;;;;;;;;;;5021558;28;20223;-72
2023/03/02 02:59:01;;;;;;;11.45;6.22;;;;;;;;;;5032269;28;20672;-71
2023/03/02 03:01:29;;;;;;;12.60;6.25;;;;;;;;;;5035627;28;20206;-71
2023/03/02 03:03:57;;;;;;;11.23;5.75;;;;;;;;;;5035373;28;20231;-72
2023/03/02 03:06:25;;;;;;;13.52;6.28;;;;;;;;;;5027759;28;20196;-73
2023/03/02 03:08:57;;;;;;;10.27;6.68;;;;;;;;;;5015900;28;20214;-72
2023/03/02 03:11:25;;;;;;;10.13;7.20;;;;;;;;;;5016403;28;20223;-70
2023/03/02 03:13:54;;;;;;;12.98;5.75;;;;;;;;;;5035182;28;20231;-71
2023/03/02 03:16:23;;;;;;;9.93;6.20;;;;;;;;;;5035274;28;20199;-71
2023/03/02 03:18:51;;;;;;;12.82;6.13;;;;;;;;;;5015520;28;20200;-73
2023/03/02 03:21:18;;;;;;;10.65;6.28;;;;;;;;;;5014911;28;20204;-71
2023/03/02 03:23:45;;;;;;;11.48;7.03;;;;;;;;;;5013839;28;20220;-72
2023/03/02 03:26:12;;;;;;;9.38;6.38;;;;;;;;;;5014710;28;20211;-72
2023/03/02 03:28:39;;;;;;;8.52;6.00;;;;;;;;;;5015406;28;20200;-72
2023/03/02 03:31:07;;;;;;;11.93;7.15;;;;;;;;;;5013404;28;20211;-72
2023/03/02 03:33:35;;;;;;;8.93;5.35;;;;;;;;;;5014716;28;20224;-72
2023/03/02 03:36:02;;;;;;;8.80;6.07;;;;;;;;;;5014781;28;20562;-70
2023/03/02 03:38:30;;;;;;;6.20;5.47;;;;;;;;;;5019542;28;20703;-70
2023/03/02 03:40:57;;;;;;;8.20;5.65;;;;;;;;;;5015319;28;20208;-72
2023/03/02 03:43:24;;;;;;;10.50;6.18;;;;;;;;;;5013974;28;20223;-70
2023/03/02 03:45:51;;;;;;;9.07;5.72;;;;;;;;;;5025023;28;20203;-72
2023/03/02 03:48:18;;;;;;;10.57;6.43;;;;;;;;;;5034675;28;20541;-72
2023/03/02 03:50:46;;;;;;;11.98;7.03;;;;;;;;;;5033874;28;20206;-72
2023/03/02 03:53:13;;;;;;;8.27;5.40;;;;;;;;;;5032945;28;20230;-71
2023/03/02 03:55:40;;;;;;;10.63;6.45;;;;;;;;;;5015844;28;20208;-70
2023/03/02 03:58:07;;;;;;;10.80;5.90;;;;;;;;;;5014892;28;20239;-72
2023/03/02 04:00:34;;;;;;;15.13;6.65;;;;;;;;;;5014535;28;20204;-72
2023/03/02 04:03:02;;;;;;;9.60;6.60;;;;;;;;;;5014357;28;20224;-70
2023/03/02 04:05:29;;;;;;;8.63;5.55;;;;;;;;;;5014759;28;20200;-72
2023/03/02 04:07:58;;;;;;;9.52;6.25;;;;;;;;;;5014684;28;20196;-72
2023/03/02 04:10:25;;;;;;;8.13;5.72;;;;;;;;;;5014918;28;20226;-71
2023/03/02 04:12:52;;;;;;;11.10;5.57;;;;;;;;;;5013530;28;20238;-71
2023/03/02 04:15:19;;;;;;;11.88;5.95;;;;;;;;;;5014404;28;20409;-72
2023/03/02 04:17:46;;;;;;;8.35;5.53;;;;;;;;;;5020621;28;20215;-72
2023/03/02 04:20:15;;;;;;;9.85;6.35;;;;;;;;;;5033915;28;20206;-72
2023/03/02 04:22:43;;;;;;;9.95;5.35;;;;;;;;;;5033720;28;20219;-72
2023/03/02 04:25:12;;;;;;;8.18;5.82;;;;;;;;;;5033719;28;20200;-69
2023/03/02 04:27:39;;;;;;;8.63;6.40;;;;;;;;;;5031791;28;20200;-72
2023/03/02 04:30:07;;;;;;;11.30;5.75;;;;;;;;;;5034228;28;20202;-71
2023/03/02 04:32:35;;;;;;;10.65;5.22;;;;;;;;;;5033569;28;20227;-71
2023/03/02 04:35:02;;;;;;;9.82;6.43;;;;;;;;;;5033646;28;20195;-72
2023/03/02 04:37:29;;;;;;;12.35;7.10;;;;;;;;;;5033835;28;20219;-71
2023/03/02 04:39:56;;;;;;;13.05;7.55;;;;;;;;;;5018451;28;20204;-72
2023/03/02 04:42:24;;;;;;;12.05;6.00;;;;;;;;;;5018612;28;20195;-72
2023/03/02 04:44:51;;;;;;;9.05;6.25;;;;;;;;;;5033807;28;20215;-72
2023/03/02 04:47:19;;;;;;;9.93;5.45;;;;;;;;;;5033115;28;20196;-71
2023/03/02 04:49:46;;;;;;;9.10;5.85;;;;;;;;;;5031119;28;20199;-71
2023/03/02 04:52:13;;;;;;;7.80;5.30;;;;;;;;;;5011633;28;20203;-72
2023/03/02 04:54:40;;;;;;;12.65;6.72;;;;;;;;;;5013483;28;20196;-72
2023/03/02 04:57:07;;;;;;;11.98;5.75;;;;;;;;;;5027588;28;20222;-72
2023/03/02 04:59:35;;;;;;;7.28;5.43;;;;;;;;;;5018393;28;20200;-69
2023/03/02 05:02:02;;;;;;;7.80;5.85;;;;;;;;;;5013035;28;20211;-72
2023/03/02 05:04:30;;;;;;;9.63;6.07;;;;;;;;;;5012886;28;20223;-71
2023/03/02 05:06:57;;;;;;;10.55;6.97;;;;;;;;;;5013519;28;20210;-71
2023/03/02 05:09:26;;;;;;;11.82;7.43;;;;;;;;;;5013195;28;20211;-71
2023/03/02 05:11:53;;;;;;;13.25;6.95;;;;;;;;;;5013009;28;20254;-71
2023/03/02 05:14:20;;;;;;;9.60;5.65;;;;;;;;;;5012586;28;20286;-71
2023/03/02 05:16:49;;;;;;;14.65;7.05;;;;;;;;;;5012986;28;20200;-71
2023/03/02 05:19:16;;;;;;;9.50;6.55;;;;;;;;;;5013079;28;20202;-72
2023/03/02 05:21:43;;;;;;;11.32;6.07;;;;;;;;;;5032280;28;20226;-72
2023/03/02 05:24:10;;;;;;;9.75;6.15;;;;;;;;;;5032323;28;20219;-71
2023/03/02 05:26:37;;;;;;;11.55;7.05;;;;;;;;;;5030381;28;20199;-71
2023/03/02 05:29:05;;;;;;;13.38;7.43;;;;;;;;;;5030753;28;20192;-71
2023/03/02 05:31:34;;;;;;;10.27;6.53;;;;;;;;;;5016137;28;20680;-72
2023/03/02 05:34:02;;;;;;;13.10;6.88;;;;;;;;;;5012561;28;20641;-72
2023/03/02 05:36:29;;;;;;;11.07;6.03;;;;;;;;;;5012915;28;20203;-72
2023/03/02 05:38:57;;;;;;;16.40;6.35;;;;;;;;;;5012495;28;20224;-71
2023/03/02 05:41:24;;;;;;;11.90;6.40;;;;;;;;;;5031818;28;20213;-72
2023/03/02 05:43:51;;;;;;;10.77;5.97;;;;;;;;;;5032686;28;20219;-70
2023/03/02 05:46:18;;;;;;;9.68;5.95;;;;;;;;;;5031880;28;20203;-70
2023/03/02 05:48:45;;;;;;;8.70;6.63;;;;;;;;;;5012375;28;20223;-72
2023/03/02 05:51:14;;;;;;;13.60;6.57;;;;;;;;;;5012458;28;20207;-72
2023/03/02 05:53:41;;;;;;;11.45;6.38;;;;;;;;;;5021448;28;20782;-71
2023/03/02 05:56:08;;;;;;;11.63;6.50;;;;;;;;;;5032511;28;20596;-71
2023/03/02 05:58:35;;;;;;;6.55;5.28;;;;;;;;;;5025251;28;20223;-71
2023/03/02 06:01:02;;;;;;;16.70;6.63;;;;;;;;;;5012235;28;20206;-71
2023/03/02 06:03:29;;;;;;;8.60;6.13;;;;;;;;;;5011213;28;20231;-71
2023/03/02 06:05:56;;;;;;;14.32;6.80;;;;;;;;;;5012710;28;20204;-71
2023/03/02 06:08:25;;;;;;;15.43;6.70;;;;;;;;;;5027121;28;20207;-72
2023/03/02 06:10:55;;;;;;;9.95;5.30;;;;;;;;;;5027109;28;20215;-72
2023/03/02 06:13:22;;;;;;;8.45;5.10;;;;;;;;;;5034879;23;20226;-72
2023/03/02 06:15:49;;;;;;;9.65;6.10;;;;;;;;;;5048425;28;20194;-71
2023/03/02 06:18:16;;;;;;;12.68;6.85;;;;;;;;;;5048029;28;20691;-72
2023/03/02 06:20:43;;;;;;;12.20;6.82;;;;;;;;;;5046532;28;20660;-72
2023/03/02 06:23:11;;;;;;;11.52;6.25;;;;;;;;;;5049612;28;20222;-72
2023/03/02 06:25:42;;;;;;;12.45;6.75;;;;;;;;;;5051397;28;20286;-72
2023/03/02 06:28:09;;;;;;;11.10;7.40;;;;;;;;;;5046211;28;20198;-71
2023/03/02 06:30:36;;;;;;;11.45;8.40;;;;;;;;;;5044391;28;20467;-72
2023/03/02 06:33:03;;;;;;;12.30;7.70;;;;;;;;;;5043150;28;20485;-71
2023/03/02 06:35:32;;;;;;;12.10;7.68;;;;;;;;;;5046105;28;20195;-71
2023/03/02 06:37:59;;;;;;;23.33;7.70;;;;;;;;;;5050980;28;20310;-69
2023/03/02 06:40:26;;;;;;;17.42;6.68;;;;;;;;;;5050134;28;20569;-69
2023/03/02 06:42:54;;;;;;;12.02;7.60;;;;;;;;;;5049593;28;20202;-69
2023/03/02 06:45:21;;;;;;;11.82;7.07;;;;;;;;;;5050261;28;20202;-69
2023/03/02 06:47:48;;;;;;;15.10;7.00;;;;;;;;;;5051440;28;20675;-69
2023/03/02 06:50:15;;;;;;;11.30;5.82;;;;;;;;;;5045755;28;20572;-69
2023/03/02 06:52:42;;;;;;;12.52;6.70;;;;;;;;;;5047660;28;20213;-70
2023/03/02 06:55:10;;;;;;;13.55;7.10;;;;;;;;;;5047382;28;20644;-70
2023/03/02 06:57:37;;;;;;;14.32;7.18;;;;;;;;;;5048950;28;20210;-69
2023/03/02 07:00:08;;;;;;;10.90;7.55;;;;;;;;;;5045336;28;20198;-70
2023/03/02 07:02:35;;;;;;;13.30;6.88;;;;;;;;;;5051130;28;20563;-70
2023/03/02 07:05:02;;;;;;;12.15;6.15;;;;;;;;;;5049644;28;20236;-69
2023/03/02 07:07:29;;;;;;;13.85;7.60;;;;;;;;;;5041694;28;20199;-70
2023/03/02 07:09:56;;;;;;;20.77;8.15;;;;;;;;;;5050173;28;20194;-73
2023/03/02 07:12:24;;;;;;;11.13;6.50;;;;;;;;;;5049725;28;20195;-71
2023/03/02 07:14:51;;;;;;;15.00;6.85;;;;;;;;;;5047053;28;20226;-73
2023/03/02 07:17:19;;;;;;;10.50;7.07;;;;;;;;;;5045263;28;20198;-71
2023/03/02 07:19:46;;;;;;;12.65;6.97;;;;;;;;;;5050945;28;20206;-70
2023/03/02 07:22:13;;;;;;;13.73;7.72;;;;;;;;;;5039203;28;20199;-72
2023/03/02 07:24:40;;;;;;;14.55;7.82;;;;;;;;;;5030747;28;20219;-73
2023/03/02 07:27:07;;;;;;;12.20;7.90;;;;;;;;;;5031476;28;20207;-72
2023/03/02 07:29:34;;;;;;;15.23;6.72;;;;;;;;;;5038026;28;20198;-72
2023/03/02 07:32:01;;;;;;;12.40;7.28;;;;;;;;;;5049447;28;20209;-71
2023/03/02 07:34:30;;;;;;;20.98;8.70;;;;;;;;;;5050542;28;20223;-72
2023/03/02 07:36:57;;;;;;;13.10;8.02;;;;;;;;;;5051130;28;20207;-72
2023/03/02 07:39:24;;;;;;;20.13;9.75;;;;;;;;;;5051973;28;20223;-72
2023/03/02 07:41:51;;;;;;;19.35;10.60;;;;;;;;;;5054094;28;20206;-72
2023/03/02 07:44:18;;;;;;;14.60;8.68;;;;;;;;;;5055318;28;20575;-71
2023/03/02 07:46:45;;;;;;;15.48;8.77;;;;;;;;;;5054500;28;20207;-72
2023/03/02 07:49:12;;;;;;;15.35;7.63;;;;;;;;;;5054563;28;20194;-72
2023/03/02 07:51:41;;;;;;;12.68;7.50;;;;;;;;;;5054381;28;20207;-72
2023/03/02 07:54:08;;;;;;;15.32;8.38;;;;;;;;;;5052102;28;20225;-72
2023/03/02 07:56:35;;;;;;;13.07;7.28;;;;;;;;;;5053638;28;20202;-72
2023/03/02 07:59:02;;;;;;;15.57;8.55;;;;;;;;;;5052034;28;20699;-72
2023/03/02 08:01:29;;;;;;;24.83;8.85;;;;;;;;;;5050035;28;20580;-71
2023/03/02 08:03:56;;;;;;;11.73;7.65;;;;;;;;;;5054185;28;20241;-72
2023/03/02 08:06:23;;;;;;;11.55;7.15;;;;;;;;;;5051266;28;20199;-72
2023/03/02 08:08:51;;;;;;;10.25;7.30;;;;;;;;;;5033313;28;20511;-72
2023/03/02 08:11:19;;;;;;;17.25;8.63;;;;;;;;;;5034108;28;20708;-73
2023/03/02 08:13:46;;;;;;;11.68;7.78;;;;;;;;;;5032978;28;20234;-71
2023/03/02 08:16:14;;;;;;;11.10;7.93;;;;;;;;;;5034211;28;20199;-72
2023/03/02 08:18:41;;;;;;;13.00;8.02;;;;;;;;;;5034049;28;20219;-72
2023/03/02 08:21:12;;;;;;;15.63;8.40;;;;;;;;;;5034406;28;20211;-72
2023/03/02 08:23:39;;;;;;;12.00;7.15;;;;;;;;;;5053904;28;20611;-71
2023/03/02 08:26:07;;;;;;;14.18;7.95;;;;;;;;;;5051570;28;20256;-74
2023/03/02 08:28:35;;;;;;;15.25;6.85;;;;;;;;;;5052762;28;20191;-71
2023/03/02 08:31:03;;;;;;;12.38;7.90;;;;;;;;;;5049089;28;20203;-72
2023/03/02 08:33:30;;;;;;;12.68;7.90;;;;;;;;;;5040903;28;20235;-74
2023/03/02 08:35:58;;;;;;;11.70;7.78;;;;;;;;;;5044170;28;20196;-71
2023/03/02 08:38:25;;;;;;;13.85;7.80;;;;;;;;;;5050848;28;20210;-72
2023/03/02 08:40:52;;;;;;;11.98;7.30;;;;;;;;;;5053512;28;20201;-72
2023/03/02 08:43:21;;;;;;;11.45;7.57;;;;;;;;;;5053043;28;20742;-72
2023/03/02 08:45:51;;;;;;;11.88;7.85;;;;;;;;;;5052059;28;20203;-71
2023/03/02 08:48:18;;;;;;;11.55;8.73;;;;;;;;;;5053169;28;20236;-71
2023/03/02 08:50:45;;;;;;;15.52;9.00;;;;;;;;;;5051976;28;20198;-71
2023/03/02 08:53:12;;;;;;;11.38;7.40;;;;;;;;;;5051675;28;20222;-71
2023/03/02 08:55:39;;;;;;;14.98;6.85;;;;;;;;;;5051302;28;20198;-72
2023/03/02 08:58:06;;;;;;;14.57;7.22;;;;;;;;;;5048666;28;20204;-71
2023/03/02 09:00:34;;;;;;;16.00;7.47;;;;;;;;;;5046159;28;20205;-72
2023/03/02 09:03:01;;;;;;;9.27;7.07;;;;;;;;;;5041286;28;20219;-72
2023/03/02 09:05:29;;;;;;;9.85;7.70;;;;;;;;;;5051637;28;20210;-72
2023/03/02 09:07:56;;;;;;;9.70;7.05;;;;;;;;;;5051541;28;20205;-73
2023/03/02 09:10:23;;;;;;;11.30;7.30;;;;;;;;;;5051536;28;20206;-72
2023/03/02 09:12:50;;;;;;;11.30;7.03;;;;;;;;;;5050403;28;20198;-74
2023/03/02 09:15:17;;;;;;;10.10;6.72;;;;;;;;;;5047696;28;20200;-73
2023/03/02 09:17:45;;;;;;;14.05;8.05;;;;;;;;;;5053051;28;20206;-73
2023/03/02 09:20:13;;;;;;;14.35;8.20;;;;;;;;;;5051664;28;20234;-73
2023/03/02 09:22:46;;;;;;;11.93;7.28;;;;;;;;;;5050788;28;20194;-73
2023/03/02 09:25:13;;;;;;;10.65;7.10;;;;;;;;;;5052323;28;20211;-73
2023/03/02 09:27:41;;;;;;;10.18;7.30;;;;;;;;;;5047254;28;20691;-72
2023/03/02 09:30:08;;;;;;;11.23;7.20;;;;;;;;;;5048767;28;20187;-72
2023/03/02 09:32:35;;;;;;;10.55;7.85;;;;;;;;;;5049063;28;20210;-71
2023/03/02 09:35:04;;;;;;;11.18;6.57;;;;;;;;;;5050964;28;20223;-72
2023/03/02 09:37:31;;;;;;;12.73;7.38;;;;;;;;;;5042713;28;20688;-72
2023/03/02 09:39:58;;;;;;;11.48;6.63;;;;;;;;;;5047026;28;20215;-72
2023/03/02 09:42:32;;;;;;;10.23;6.57;;;;;;;;;;5047370;28;20474;-71
2023/03/02 09:45:08;;;;;;;11.32;6.72;;;;;;;;;;5049441;28;20725;-72
2023/03/02 09:47:38;;;;;;;11.18;7.78;;;;;;;;;;5046986;28;20194;-72
2023/03/02 09:50:26;;;;;;;14.77;7.50;;;;;;;;;;5050240;28;20186;-72
2023/03/02 09:52:59;;;;;;;12.57;7.13;;;;;;;;;;5051494;28;20229;-72
2023/03/02 09:55:28;;;;;;;10.75;7.00;;;;;;;;;;5039772;28;20203;-74
2023/03/02 09:57:56;;;;;;;13.55;7.50;;;;;;;;;;5038398;28;20203;-74
2023/03/02 10:00:27;;;;;;;9.07;6.10;;;;;;;;;;5051930;28;20688;-71
2023/03/02 10:02:55;;;;;;;12.60;6.53;;;;;;;;;;5043325;28;20664;-71
2023/03/02 10:05:24;;;;;;;12.65;7.80;;;;;;;;;;5049432;28;20203;-71
2023/03/02 10:07:51;;;;;;;8.85;6.03;;;;;;;;;;5053996;28;20576;-71
2023/03/02 10:10:23;;;;;;;10.68;6.80;;;;;;;;;;5051704;28;20198;-70
2023/03/02 10:12:58;;;;;;;8.95;6.35;;;;;;;;;;5051166;28;20210;-70
2023/03/02 10:15:31;;;;;;;13.57;8.40;;;;;;;;;;5038582;28;20202;-73
2023/03/02 10:18:01;;;;;;;14.50;7.20;;;;;;;;;;5043114;28;20202;-74
2023/03/02 10:20:32;;;;;;;14.40;8.48;;;;;;;;;;5050712;28;20739;-74
2023/03/02 10:23:02;;;;;;;13.65;6.70;;;;;;;;;;5046875;28;20312;-74
2023/03/02 10:25:35;;;;;;;11.90;6.95;;;;;;;;;;5052048;28;20230;-75
2023/03/02 10:28:06;;;;;;;13.57;6.93;;;;;;;;;;5050295;28;20199;-74
2023/03/02 10:30:34;;;;;;;11.25;7.13;;;;;;;;;;5051902;28;20190;-75
2023/03/02 10:33:03;;;;;;;10.95;6.82;;;;;;;;;;5045081;28;20234;-75
2023/03/02 10:35:32;;;;;;;12.23;6.60;;;;;;;;;;5044906;28;20198;-75
2023/03/02 10:38:00;;;;;;;11.63;7.10;;;;;;;;;;5048093;28;20198;-75
2023/03/02 10:40:39;;;;;;;12.43;7.47;;;;;;;;;;5050764;28;20210;-75
2023/03/02 10:43:07;;;;;;;10.98;6.93;;;;;;;;;;5048818;28;20228;-75
2023/03/02 10:45:34;;;;;;;10.40;6.60;;;;;;;;;;5051229;28;20195;-76
2023/03/02 10:48:02;;;;;;;9.13;6.55;;;;;;;;;;5050200;28;20202;-74
2023/03/02 10:50:30;;;;;;;9.48;7.53;;;;;;;;;;5047769;28;20732;-75
2023/03/02 10:52:59;;;;;;;11.23;7.22;;;;;;;;;;5051263;28;20618;-75
2023/03/02 10:55:26;;;;;;;16.00;7.43;;;;;;;;;;5046375;28;20198;-75
2023/03/02 10:58:01;;;;;;;11.18;7.40;;;;;;;;;;5046141;28;20229;-76
2023/03/02 11:00:29;;;;;;;11.25;7.65;;;;;;;;;;5049651;28;20210;-73
2023/03/02 11:02:57;;;;;;;11.35;7.32;;;;;;;;;;5043797;28;20661;-75
2023/03/02 11:05:28;;;;;;;10.43;6.78;;;;;;;;;;5050615;28;20676;-70
2023/03/02 11:07:56;;;;;;;10.05;6.28;;;;;;;;;;5039459;28;20198;-69
2023/03/02 11:10:27;;;;;;;12.05;8.07;;;;;;;;;;5043808;28;20202;-70
2023/03/02 11:12:54;;;;;;;14.32;7.45;;;;;;;;;;5043762;28;20285;-70
2023/03/02 11:15:23;;;;;;;10.75;6.43;;;;;;;;;;5050837;28;20571;-69
2023/03/02 11:17:54;;;;;;;12.30;8.02;;;;;;;;;;5043908;28;20297;-70
2023/03/02 11:20:23;;;;;;;11.48;7.55;;;;;;;;;;5046503;28;20210;-70
2023/03/02 11:22:54;;;;;;;10.18;6.95;;;;;;;;;;5046781;28;20203;-69
2023/03/02 11:25:25;;;;;;;10.15;6.47;;;;;;;;;;5042628;28;20203;-70
2023/03/02 11:27:56;;;;;;;13.23;7.72;;;;;;;;;;5053819;28;20209;-70
2023/03/02 11:30:25;;;;;;;12.93;7.47;;;;;;;;;;5047849;28;20191;-70
2023/03/02 11:32:56;;;;;;;10.45;6.90;;;;;;;;;;5049626;28;20625;-69
2023/03/02 11:35:29;;;;;;;12.07;6.90;;;;;;;;;;5050491;28;20195;-68
2023/03/02 11:38:00;;;;;;;11.95;7.40;;;;;;;;;;5050310;28;20203;-70
2023/03/02 11:40:31;;;;;;;10.25;6.68;;;;;;;;;;5054581;28;20210;-70
2023/03/02 11:43:03;;;;;;;17.00;8.18;;;;;;;;;;5051110;28;20691;-70
2023/03/02 11:45:31;;;;;;;11.52;7.35;;;;;;;;;;5046650;28;20202;-70
2023/03/02 11:48:01;;;;;;;11.40;7.30;;;;;;;;;;5052869;28;20208;-70
2023/03/02 11:50:29;;;;;;;12.20;8.13;;;;;;;;;;5053256;28;20759;-69
2023/03/02 11:52:58;;;;;;;17.83;7.50;;;;;;;;;;5049553;28;20210;-69
2023/03/02 11:55:27;;;;;;;13.43;7.93;;;;;;;;;;5045902;28;20194;-70
2023/03/02 11:57:56;;;;;;;13.65;7.03;;;;;;;;;;5051242;28;20682;-71
2023/03/02 12:00:29;;;;;;;11.95;8.00;;;;;;;;;;5049940;28;20305;-72
2023/03/02 12:03:00;;;;;;;10.68;7.32;;;;;;;;;;5051658;28;20206;-73
2023/03/02 12:05:28;;;;;;;10.10;7.40;;;;;;;;;;5053572;28;20202;-74
2023/03/02 12:07:59;;;;;;;12.95;6.82;;;;;;;;;;5051641;28;20221;-73
2023/03/02 12:10:31;;;;;;;15.05;7.88;;;;;;;;;;5050076;28;20205;-73
2023/03/02 12:15:41;;;;;;;13.10;6.80;;;;;;;;;;5034004;28;20604;-76
2023/03/02 12:18:30;;;;;;;10.57;7.43;;;;;;;;;;5045518;28;20976;-75
2023/03/02 12:21:02;;;;;;;8.90;6.30;;;;;;;;;;5049755;28;20218;-74
2023/03/02 12:23:29;;;;;;;10.43;7.35;;;;;;;;;;5049061;28;20583;-75
2023/03/02 12:26:04;;;;;;;11.00;7.40;;;;;;;;;;5051992;28;20203;-76
2023/03/02 12:28:34;;;;;;;7.95;6.93;;;;;;;;;;5033655;28;20671;-75
2023/03/02 12:31:07;;;;;;;9.80;6.63;;;;;;;;;;5049091;28;20564;-76
2023/03/02 12:33:39;;;;;;;11.30;6.80;;;;;;;;;;5045182;28;20473;-75
2023/03/02 12:36:12;;;;;;;11.95;7.07;;;;;;;;;;5053364;28;20453;-74
2023/03/02 12:38:39;;;;;;;14.67;7.03;;;;;;;;;;5053447;28;20198;-75
2023/03/02 12:41:13;;;;;;;9.77;7.03;;;;;;;;;;5050838;28;20527;-74
2023/03/02 12:43:43;;;;;;;11.13;6.80;;;;;;;;;;5048769;28;20656;-76
2023/03/02 12:46:26;;;;;;;12.57;7.50;;;;;;;;;;5053311;28;20811;-75
2023/03/02 12:48:58;;;;;;;13.50;8.13;;;;;;;;;;5050417;28;20461;-75
2023/03/02 12:51:27;;;;;;;10.27;6.90;;;;;;;;;;5039344;28;20442;-74
2023/03/02 12:54:02;;;;;;;9.43;6.90;;;;;;;;;;5033083;28;20465;-75
2023/03/02 12:56:29;;;;;;;12.37;7.13;;;;;;;;;;5034873;28;20452;-75
2023/03/02 12:58:56;;;;;;;11.30;6.70;;;;;;;;;;5052221;28;20579;-73
2023/03/02 13:01:25;;;;;;;13.70;7.67;;;;;;;;;;5050464;28;20484;-75
2023/03/02 13:03:53;;;;;;;12.13;6.73;;;;;;;;;;5053180;28;20826;-74
2023/03/02 13:06:21;;;;;;;12.33;6.80;;;;;;;;;;5052422;28;20429;-76
2023/03/02 13:08:50;;;;;;;13.67;6.80;;;;;;;;;;5043905;28;20869;-75
2023/03/02 13:11:21;;;;;;;13.50;7.40;;;;;;;;;;5041106;28;20465;-74
2023/03/02 13:13:48;;;;;;;11.23;6.90;;;;;;;;;;5047555;28;20492;-77
2023/03/02 13:16:20;;;;;;;10.73;7.27;;;;;;;;;;5044080;28;20484;-75
2023/03/02 13:18:52;;;;;;;10.67;6.43;;;;;;;;;;5041242;28;20912;-75
2023/03/02 13:21:20;;;;;;;9.20;6.40;;;;;;;;;;5047131;28;20480;-76
2023/03/02 13:23:48;;;;;;;12.50;7.10;;;;;;;;;;5052144;28;20977;-76
2023/03/02 13:26:24;;;;;;;11.13;6.60;;;;;;;;;;5051539;28;20433;-74
2023/03/02 13:29:01;;;;;;;9.43;5.70;;;;;;;;;;5052276;28;20759;-74
2023/03/02 13:31:28;;;;;;;9.80;6.57;;;;;;;;;;5046076;28;20453;-75
2023/03/02 13:33:57;;;;;;;10.90;7.10;;;;;;;;;;5039670;28;20485;-75
2023/03/02 13:36:25;;;;;;;8.63;5.50;;;;;;;;;;5050457;28;20827;-75
2023/03/02 13:38:54;;;;;;;10.43;6.73;;;;;;;;;;5051421;28;20471;-75
2023/03/02 13:41:24;;;;;;;9.10;6.67;;;;;;;;;;5051119;28;20500;-75
2023/03/02 13:43:52;;;;;;;11.03;7.17;;;;;;;;;;5044565;28;20481;-76
2023/03/02 13:46:26;;;;;;;9.17;6.40;;;;;;;;;;5041470;28;20454;-74
2023/03/02 13:48:59;;;;;;;8.20;5.67;;;;;;;;;;5047778;28;20548;-76
2023/03/02 13:51:28;;;;;;;7.60;5.60;;;;;;;;;;5035299;28;20475;-73
2023/03/02 13:53:56;;;;;;;7.97;5.73;;;;;;;;;;5043603;28;20461;-74
2023/03/02 13:56:25;;;;;;;10.10;6.33;;;;;;;;;;5049135;28;20830;-73
2023/03/02 13:58:52;;;;;;;9.83;5.80;;;;;;;;;;5048823;28;20452;-75
2023/03/02 14:01:19;;;;;;;6.77;4.70;;;;;;;;;;5044255;28;20997;-74
2023/03/02 14:03:46;;;;;;;8.90;6.50;;;;;;;;;;5046777;28;20477;-76
2023/03/02 14:06:17;;;;;;;10.63;6.70;;;;;;;;;;5052630;28;20444;-73
2023/03/02 14:08:44;;;;;;;8.13;5.50;;;;;;;;;;5051651;28;20954;-74
2023/03/02 14:11:12;;;;;;;10.57;5.63;;;;;;;;;;5036222;28;20454;-75
2023/03/02 14:13:42;;;;;;;8.60;6.10;;;;;;;;;;5029680;28;20485;-76
2023/03/02 14:16:11;;;;;;;7.67;5.57;;;;;;;;;;5031657;28;20814;-75
2023/03/02 14:18:39;;;;;;;8.80;5.77;;;;;;;;;;5048059;28;20472;-77
2023/03/02 14:21:06;;;;;;;11.23;6.03;;;;;;;;;;5041298;28;20480;-78
2023/03/02 14:23:35;;;;;;;9.60;6.27;;;;;;;;;;5050055;28;20472;-77
2023/03/02 14:26:05;;;;;;;9.30;5.50;;;;;;;;;;5051901;28;20451;-77
2023/03/02 14:28:34;;;;;;;10.00;6.40;;;;;;;;;;5051424;28;20437;-76
2023/03/02 14:31:02;;;;;;;10.60;5.63;;;;;;;;;;5050801;28;20865;-75
2023/03/02 14:33:29;;;;;;;6.43;5.27;;;;;;;;;;5048731;28;20973;-75
2023/03/02 14:35:57;;;;;;;7.90;5.83;;;;;;;;;;5045492;28;20703;-75
2023/03/02 14:38:25;;;;;;;8.60;5.70;;;;;;;;;;5037949;28;20441;-75
2023/03/02 14:40:53;;;;;;;11.90;6.10;;;;;;;;;;5050866;28;20477;-75
2023/03/02 14:43:22;;;;;;;7.37;5.33;;;;;;;;;;5050858;28;20447;-75